Terminal Aerodrome Forecast
Issued by NWS

Home | Current Version | Previous Version | Text Only | Print | Product List | Glossary On
Versions: 1 2 3 4 5 6 7 8 9 10 11 12
000
FTUS45 KABQ 161700
TAFFMN
TAF
KFMN 161735Z 1618/1718 VRB06KT P6SM FEW080 SCT150
     FM162000 21008KT P6SM FEW080 SCT110
     FM162200 19008KT P6SM VCTS BKN080CB BKN110
     FM170300 10007KT P6SM VCSH BKN080 BKN120
     FM170600 10008KT P6SM BKN120=

USA.gov is the U.S. government's official web portal to all federal, state and local government web resources and services.